sensor_id;sensor_type;location;lat;lon;timestamp;pressure;altitude;pressure_sealevel;temperature;humidity
43934;BME280;59081;42.706;23.306;2022-10-24T00:01:11;95908.31;;;12.13;68.75
43934;BME280;59081;42.706;23.306;2022-10-24T00:03:38;95900.09;;;11.93;69.19
43934;BME280;59081;42.706;23.306;2022-10-24T00:06:08;95894.81;;;11.82;69.72
43934;BME280;59081;42.706;23.306;2022-10-24T00:08:36;95888.66;;;11.75;70.18
43934;BME280;59081;42.706;23.306;2022-10-24T00:11:10;95885.53;;;11.73;70.51
43934;BME280;59081;42.706;23.306;2022-10-24T00:13:37;95887.59;;;11.69;70.37
43934;BME280;59081;42.706;23.306;2022-10-24T00:16:03;95992.19;;;12.39;70.64
43934;BME280;59081;42.706;23.306;2022-10-24T00:18:28;95927.22;;;11.78;71.19
43934;BME280;59081;42.706;23.306;2022-10-24T00:20:54;95973.31;;;12.17;71.04
43934;BME280;59081;42.706;23.306;2022-10-24T00:23:20;95979.41;;;12.29;71.16
43934;BME280;59081;42.706;23.306;2022-10-24T00:25:45;95928.75;;;11.99;70.76
43934;BME280;59081;42.706;23.306;2022-10-24T00:28:11;95916.50;;;12.00;70.44
43934;BME280;59081;42.706;23.306;2022-10-24T00:30:36;95860.56;;;11.60;70.11
43934;BME280;59081;42.706;23.306;2022-10-24T00:33:02;95876.47;;;11.72;70.34
43934;BME280;59081;42.706;23.306;2022-10-24T00:35:28;95883.13;;;11.75;70.40
43934;BME280;59081;42.706;23.306;2022-10-24T00:37:53;95946.91;;;12.16;70.18
43934;BME280;59081;42.706;23.306;2022-10-24T00:40:20;95924.63;;;12.07;70.11
43934;BME280;59081;42.706;23.306;2022-10-24T00:42:46;95867.56;;;11.65;70.16
43934;BME280;59081;42.706;23.306;2022-10-24T00:45:47;95969.03;;;12.33;69.79
43934;BME280;59081;42.706;23.306;2022-10-24T00:50:51;95899.56;;;11.82;69.46
43934;BME280;59081;42.706;23.306;2022-10-24T00:53:18;95975.94;;;12.25;69.53
43934;BME280;59081;42.706;23.306;2022-10-24T00:55:48;95900.47;;;11.75;69.06
43934;BME280;59081;42.706;23.306;2022-10-24T00:58:15;95914.19;;;11.79;69.16
43934;BME280;59081;42.706;23.306;2022-10-24T01:00:42;95953.47;;;12.06;68.97
43934;BME280;59081;42.706;23.306;2022-10-24T01:03:10;95896.00;;;11.62;69.13
43934;BME280;59081;42.706;23.306;2022-10-24T01:05:45;95899.53;;;11.62;68.93
43934;BME280;59081;42.706;23.306;2022-10-24T01:08:35;95972.28;;;12.11;68.65
43934;BME280;59081;42.706;23.306;2022-10-24T01:13:48;95951.78;;;11.73;69.30
43934;BME280;59081;42.706;23.306;2022-10-24T01:19:06;95939.31;;;11.65;68.94
43934;BME280;59081;42.706;23.306;2022-10-24T01:21:45;95894.31;;;11.28;68.91
43934;BME280;59081;42.706;23.306;2022-10-24T01:34:58;95983.03;;;11.66;69.63
43934;BME280;59081;42.706;23.306;2022-10-24T01:37:35;95880.88;;;10.91;70.09
43934;BME280;59081;42.706;23.306;2022-10-24T01:40:15;95914.16;;;11.23;69.99
43934;BME280;59081;42.706;23.306;2022-10-24T01:42:43;95983.53;;;11.61;70.02
43934;BME280;59081;42.706;23.306;2022-10-24T01:45:15;95854.00;;;10.75;70.01
43934;BME280;59081;42.706;23.306;2022-10-24T01:47:47;95990.81;;;11.51;70.56
43934;BME280;59081;42.706;23.306;2022-10-24T01:50:15;95861.84;;;10.76;70.39
43934;BME280;59081;42.706;23.306;2022-10-24T01:52:44;95880.94;;;10.87;70.21
43934;BME280;59081;42.706;23.306;2022-10-24T01:55:11;95836.53;;;10.62;70.21
43934;BME280;59081;42.706;23.306;2022-10-24T01:57:37;95890.56;;;10.99;70.37
43934;BME280;59081;42.706;23.306;2022-10-24T02:00:06;95859.81;;;10.80;70.26
43934;BME280;59081;42.706;23.306;2022-10-24T02:02:37;95892.34;;;11.09;70.36
43934;BME280;59081;42.706;23.306;2022-10-24T02:05:26;95890.81;;;11.08;70.06
43934;BME280;59081;42.706;23.306;2022-10-24T02:07:56;95867.59;;;10.86;69.92
43934;BME280;59081;42.706;23.306;2022-10-24T02:10:33;95860.63;;;10.77;69.90
43934;BME280;59081;42.706;23.306;2022-10-24T02:13:05;95859.03;;;10.80;70.04
43934;BME280;59081;42.706;23.306;2022-10-24T02:15:41;95905.63;;;11.14;70.14
43934;BME280;59081;42.706;23.306;2022-10-24T02:18:08;95897.84;;;11.09;70.02
43934;BME280;59081;42.706;23.306;2022-10-24T02:20:38;95856.16;;;10.87;69.81
43934;BME280;59081;42.706;23.306;2022-10-24T02:23:19;95876.50;;;10.93;69.80
43934;BME280;59081;42.706;23.306;2022-10-24T02:25:50;95942.28;;;11.34;70.16
43934;BME280;59081;42.706;23.306;2022-10-24T02:28:20;95946.31;;;11.30;70.08
43934;BME280;59081;42.706;23.306;2022-10-24T02:31:00;95859.69;;;10.64;70.67
43934;BME280;59081;42.706;23.306;2022-10-24T02:33:27;95984.03;;;11.36;71.14
43934;BME280;59081;42.706;23.306;2022-10-24T02:35:54;95861.31;;;10.62;71.10
43934;BME280;59081;42.706;23.306;2022-10-24T02:38:26;95909.28;;;10.88;71.05
43934;BME280;59081;42.706;23.306;2022-10-24T02:40:56;95979.91;;;11.25;71.63
43934;BME280;59081;42.706;23.306;2022-10-24T02:43:24;95895.63;;;10.57;72.21
43934;BME280;59081;42.706;23.306;2022-10-24T02:45:52;95851.22;;;10.32;72.56
43934;BME280;59081;42.706;23.306;2022-10-24T02:48:22;95892.03;;;10.60;72.54
43934;BME280;59081;42.706;23.306;2022-10-24T02:50:49;95966.56;;;11.00;72.70
43934;BME280;59081;42.706;23.306;2022-10-24T02:53:19;95972.03;;;11.03;72.69
43934;BME280;59081;42.706;23.306;2022-10-24T02:55:45;95902.00;;;10.54;73.33
43934;BME280;59081;42.706;23.306;2022-10-24T02:58:10;95914.44;;;10.62;73.32
43934;BME280;59081;42.706;23.306;2022-10-24T03:00:36;95910.53;;;10.60;73.44
43934;BME280;59081;42.706;23.306;2022-10-24T03:03:01;95859.13;;;10.30;73.16
43934;BME280;59081;42.706;23.306;2022-10-24T03:05:27;95904.16;;;10.66;73.34
43934;BME280;59081;42.706;23.306;2022-10-24T03:07:52;95842.59;;;10.30;72.96
43934;BME280;59081;42.706;23.306;2022-10-24T03:10:18;95934.31;;;10.97;72.28
43934;BME280;59081;42.706;23.306;2022-10-24T03:12:44;95906.84;;;10.70;72.10
43934;BME280;59081;42.706;23.306;2022-10-24T03:15:09;95848.00;;;10.37;71.96
43934;BME280;59081;42.706;23.306;2022-10-24T03:17:35;95901.63;;;10.75;72.06
43934;BME280;59081;42.706;23.306;2022-10-24T03:20:01;95892.22;;;10.73;71.78
43934;BME280;59081;42.706;23.306;2022-10-24T03:22:26;95894.78;;;10.84;71.94
43934;BME280;59081;42.706;23.306;2022-10-24T03:24:52;95893.59;;;10.85;73.47
43934;BME280;59081;42.706;23.306;2022-10-24T03:27:17;95831.78;;;10.62;74.79
43934;BME280;59081;42.706;23.306;2022-10-24T03:29:43;95893.75;;;10.97;71.91
43934;BME280;59081;42.706;23.306;2022-10-24T03:32:08;95868.53;;;10.75;71.43
43934;BME280;59081;42.706;23.306;2022-10-24T03:34:34;95898.91;;;10.95;71.32
43934;BME280;59081;42.706;23.306;2022-10-24T03:37:00;95872.75;;;10.84;71.32
43934;BME280;59081;42.706;23.306;2022-10-24T03:39:25;95880.53;;;10.89;71.31
43934;BME280;59081;42.706;23.306;2022-10-24T03:41:51;95856.13;;;10.67;71.27
43934;BME280;59081;42.706;23.306;2022-10-24T03:44:16;95866.66;;;10.72;71.66
43934;BME280;59081;42.706;23.306;2022-10-24T03:46:42;95940.53;;;11.24;71.71
43934;BME280;59081;42.706;23.306;2022-10-24T03:49:07;95887.66;;;10.86;71.77
43934;BME280;59081;42.706;23.306;2022-10-24T03:51:33;95864.75;;;10.69;71.51
43934;BME280;59081;42.706;23.306;2022-10-24T03:53:58;95929.41;;;11.08;71.90
43934;BME280;59081;42.706;23.306;2022-10-24T03:56:24;95848.94;;;10.50;71.91
43934;BME280;59081;42.706;23.306;2022-10-24T03:58:49;95838.75;;;10.47;72.12
43934;BME280;59081;42.706;23.306;2022-10-24T04:01:15;95886.91;;;10.62;72.07
43934;BME280;59081;42.706;23.306;2022-10-24T04:03:45;95948.94;;;10.94;72.69
43934;BME280;59081;42.706;23.306;2022-10-24T04:06:11;95871.13;;;10.39;72.83
43934;BME280;59081;42.706;23.306;2022-10-24T04:08:37;95886.47;;;10.40;74.14
43934;BME280;59081;42.706;23.306;2022-10-24T04:11:04;95964.41;;;10.88;74.27
43934;BME280;59081;42.706;23.306;2022-10-24T04:13:30;95866.53;;;10.33;74.03
43934;BME280;59081;42.706;23.306;2022-10-24T04:15:56;95954.81;;;10.96;75.96
43934;BME280;59081;42.706;23.306;2022-10-24T04:18:21;95880.81;;;10.51;75.47
43934;BME280;59081;42.706;23.306;2022-10-24T04:20:47;95873.84;;;10.43;74.59
43934;BME280;59081;42.706;23.306;2022-10-24T04:23:12;95873.25;;;10.32;74.22
43934;BME280;59081;42.706;23.306;2022-10-24T04:25:39;95903.91;;;10.57;73.88
43934;BME280;59081;42.706;23.306;2022-10-24T04:28:05;95926.56;;;10.68;73.75
43934;BME280;59081;42.706;23.306;2022-10-24T04:30:31;95918.91;;;10.56;73.47
43934;BME280;59081;42.706;23.306;2022-10-24T04:32:57;95852.00;;;10.05;74.00
43934;BME280;59081;42.706;23.306;2022-10-24T04:35:22;95860.88;;;10.17;73.80
43934;BME280;59081;42.706;23.306;2022-10-24T04:37:49;95894.44;;;10.35;74.88
43934;BME280;59081;42.706;23.306;2022-10-24T04:40:15;95931.81;;;10.59;74.05
43934;BME280;59081;42.706;23.306;2022-10-24T04:42:50;95891.44;;;10.26;73.85
43934;BME280;59081;42.706;23.306;2022-10-24T04:45:16;95887.31;;;10.10;74.46
43934;BME280;59081;42.706;23.306;2022-10-24T04:47:41;95907.94;;;10.26;74.27
43934;BME280;59081;42.706;23.306;2022-10-24T04:50:07;95946.19;;;10.47;74.64
43934;BME280;59081;42.706;23.306;2022-10-24T04:52:33;95874.50;;;10.00;74.23
43934;BME280;59081;42.706;23.306;2022-10-24T04:54:58;95909.63;;;10.20;74.31
43934;BME280;59081;42.706;23.306;2022-10-24T04:57:24;95904.50;;;10.18;74.23
43934;BME280;59081;42.706;23.306;2022-10-24T04:59:49;95965.59;;;10.63;74.48
43934;BME280;59081;42.706;23.306;2022-10-24T05:02:15;95930.63;;;10.37;74.24
43934;BME280;59081;42.706;23.306;2022-10-24T05:04:42;95937.59;;;10.41;74.02
43934;BME280;59081;42.706;23.306;2022-10-24T05:07:08;95983.97;;;10.46;75.08
43934;BME280;59081;42.706;23.306;2022-10-24T05:09:36;95986.13;;;10.59;75.02
43934;BME280;59081;42.706;23.306;2022-10-24T05:12:02;95910.84;;;10.19;74.52
43934;BME280;59081;42.706;23.306;2022-10-24T05:14:30;95924.38;;;10.33;74.25
43934;BME280;59081;42.706;23.306;2022-10-24T05:16:56;95955.19;;;10.51;74.06
43934;BME280;59081;42.706;23.306;2022-10-24T05:19:21;95896.94;;;10.26;73.88
43934;BME280;59081;42.706;23.306;2022-10-24T05:21:47;95992.75;;;10.88;73.89
43934;BME280;59081;42.706;23.306;2022-10-24T05:24:13;95852.00;;;10.05;73.40
43934;BME280;59081;42.706;23.306;2022-10-24T05:26:38;95851.16;;;10.08;73.64
43934;BME280;59081;42.706;23.306;2022-10-24T05:29:04;95915.06;;;10.50;73.43
43934;BME280;59081;42.706;23.306;2022-10-24T05:31:29;95860.78;;;10.24;73.40
43934;BME280;59081;42.706;23.306;2022-10-24T05:33:55;95930.13;;;10.65;73.67
43934;BME280;59081;42.706;23.306;2022-10-24T05:36:20;95879.41;;;10.39;72.94
43934;BME280;59081;42.706;23.306;2022-10-24T05:38:46;95960.38;;;10.92;73.17
43934;BME280;59081;42.706;23.306;2022-10-24T05:41:12;95889.91;;;10.48;72.82
43934;BME280;59081;42.706;23.306;2022-10-24T05:43:38;95916.00;;;10.63;72.47
43934;BME280;59081;42.706;23.306;2022-10-24T05:46:03;95921.47;;;10.67;72.69
43934;BME280;59081;42.706;23.306;2022-10-24T05:48:29;95926.19;;;10.66;72.81
43934;BME280;59081;42.706;23.306;2022-10-24T05:50:56;95954.28;;;10.81;72.78
43934;BME280;59081;42.706;23.306;2022-10-24T05:53:22;95944.09;;;10.78;72.51
43934;BME280;59081;42.706;23.306;2022-10-24T05:55:47;95924.56;;;10.69;72.41
43934;BME280;59081;42.706;23.306;2022-10-24T05:58:13;95920.63;;;10.70;72.07
43934;BME280;59081;42.706;23.306;2022-10-24T06:00:38;95857.97;;;10.27;71.81
43934;BME280;59081;42.706;23.306;2022-10-24T06:03:07;95931.69;;;10.66;71.62
43934;BME280;59081;42.706;23.306;2022-10-24T06:05:34;96005.22;;;11.20;71.72
43934;BME280;59081;42.706;23.306;2022-10-24T06:08:00;96018.78;;;11.30;71.47
43934;BME280;59081;42.706;23.306;2022-10-24T06:10:25;95966.91;;;11.02;71.59
43934;BME280;59081;42.706;23.306;2022-10-24T06:12:51;95924.84;;;10.74;71.51
43934;BME280;59081;42.706;23.306;2022-10-24T06:15:17;95863.19;;;10.45;71.29
43934;BME280;59081;42.706;23.306;2022-10-24T06:17:42;95894.78;;;10.60;71.69
43934;BME280;59081;42.706;23.306;2022-10-24T06:20:09;95909.97;;;10.72;71.79
43934;BME280;59081;42.706;23.306;2022-10-24T06:22:35;95873.47;;;10.64;71.51
43934;BME280;59081;42.706;23.306;2022-10-24T06:25:03;96004.50;;;11.59;70.75
43934;BME280;59081;42.706;23.306;2022-10-24T06:27:29;95892.09;;;11.23;69.43
43934;BME280;59081;42.706;23.306;2022-10-24T06:29:55;96011.81;;;12.08;68.54
43934;BME280;59081;42.706;23.306;2022-10-24T06:32:20;95929.69;;;11.73;67.88
43934;BME280;59081;42.706;23.306;2022-10-24T06:34:46;96010.28;;;12.24;67.78
43934;BME280;59081;42.706;23.306;2022-10-24T06:37:15;95959.13;;;11.99;67.40
43934;BME280;59081;42.706;23.306;2022-10-24T06:39:42;95978.94;;;12.30;66.58
43934;BME280;59081;42.706;23.306;2022-10-24T06:42:11;95903.53;;;11.97;66.26
43934;BME280;59081;42.706;23.306;2022-10-24T06:44:37;95958.44;;;12.47;66.20
43934;BME280;59081;42.706;23.306;2022-10-24T06:47:05;96011.75;;;13.13;64.47
43934;BME280;59081;42.706;23.306;2022-10-24T06:49:31;95947.63;;;12.85;63.29
43934;BME280;59081;42.706;23.306;2022-10-24T06:51:57;95955.84;;;13.05;63.00
43934;BME280;59081;42.706;23.306;2022-10-24T06:54:22;95952.88;;;13.29;61.79
43934;BME280;59081;42.706;23.306;2022-10-24T06:56:48;96045.69;;;13.91;61.90
43934;BME280;59081;42.706;23.306;2022-10-24T06:59:17;95911.09;;;12.94;61.88
43934;BME280;59081;42.706;23.306;2022-10-24T07:01:44;95920.56;;;13.26;61.38
43934;BME280;59081;42.706;23.306;2022-10-24T07:04:10;96037.75;;;14.35;60.25
43934;BME280;59081;42.706;23.306;2022-10-24T07:06:36;96005.47;;;14.28;59.31
43934;BME280;59081;42.706;23.306;2022-10-24T07:09:03;95942.16;;;14.01;59.30
43934;BME280;59081;42.706;23.306;2022-10-24T07:11:29;95906.88;;;13.89;58.76
43934;BME280;59081;42.706;23.306;2022-10-24T07:13:55;95946.59;;;14.11;58.71
43934;BME280;59081;42.706;23.306;2022-10-24T07:16:21;95935.97;;;13.68;59.78
43934;BME280;59081;42.706;23.306;2022-10-24T07:18:46;95981.47;;;14.09;59.76
43934;BME280;59081;42.706;23.306;2022-10-24T07:21:21;96040.66;;;14.02;61.03
43934;BME280;59081;42.706;23.306;2022-10-24T07:23:49;95988.13;;;13.70;61.51
43934;BME280;59081;42.706;23.306;2022-10-24T07:26:16;95938.59;;;13.59;60.71
43934;BME280;59081;42.706;23.306;2022-10-24T07:28:43;96038.47;;;14.51;60.25
43934;BME280;59081;42.706;23.306;2022-10-24T07:31:15;95970.84;;;14.20;59.66
43934;BME280;59081;42.706;23.306;2022-10-24T07:33:40;95954.56;;;14.09;59.53
43934;BME280;59081;42.706;23.306;2022-10-24T07:36:06;95996.16;;;14.35;59.94
43934;BME280;59081;42.706;23.306;2022-10-24T07:38:32;95953.16;;;14.55;58.29
43934;BME280;59081;42.706;23.306;2022-10-24T07:41:02;95960.34;;;15.04;60.83
43934;BME280;59081;42.706;23.306;2022-10-24T07:43:28;95946.31;;;15.20;56.25
43934;BME280;59081;42.706;23.306;2022-10-24T07:45:53;95941.47;;;15.33;55.59
43934;BME280;59081;42.706;23.306;2022-10-24T07:48:19;95991.22;;;15.75;55.14
43934;BME280;59081;42.706;23.306;2022-10-24T07:50:46;95964.78;;;15.92;54.11
43934;BME280;59081;42.706;23.306;2022-10-24T07:53:12;95907.25;;;15.71;53.42
43934;BME280;59081;42.706;23.306;2022-10-24T07:55:39;95911.34;;;15.88;53.31
43934;BME280;59081;42.706;23.306;2022-10-24T07:58:06;95954.50;;;16.32;53.07
43934;BME280;59081;42.706;23.306;2022-10-24T08:00:32;95926.59;;;16.45;51.84
43934;BME280;59081;42.706;23.306;2022-10-24T08:02:57;95923.09;;;16.54;51.78
43934;BME280;59081;42.706;23.306;2022-10-24T08:05:23;95960.81;;;16.95;51.18
43934;BME280;59081;42.706;23.306;2022-10-24T08:07:51;95932.91;;;16.67;51.04
43934;BME280;59081;42.706;23.306;2022-10-24T08:10:17;95913.59;;;16.73;50.31
43934;BME280;59081;42.706;23.306;2022-10-24T08:12:42;95923.22;;;16.41;51.27
43934;BME280;59081;42.706;23.306;2022-10-24T08:15:09;96009.69;;;17.05;52.11
43934;BME280;59081;42.706;23.306;2022-10-24T08:17:34;95918.09;;;16.80;50.61
43934;BME280;59081;42.706;23.306;2022-10-24T08:20:05;95925.69;;;16.48;51.06
43934;BME280;59081;42.706;23.306;2022-10-24T08:22:31;95990.91;;;16.78;51.67
43934;BME280;59081;42.706;23.306;2022-10-24T08:25:03;95949.34;;;16.44;51.87
43934;BME280;59081;42.706;23.306;2022-10-24T08:27:31;95977.69;;;16.60;52.33
43934;BME280;59081;42.706;23.306;2022-10-24T08:29:56;95943.59;;;16.07;52.70
43934;BME280;59081;42.706;23.306;2022-10-24T08:32:22;95988.84;;;16.39;53.01
43934;BME280;59081;42.706;23.306;2022-10-24T08:34:48;96009.50;;;16.90;52.69
43934;BME280;59081;42.706;23.306;2022-10-24T08:37:13;95911.50;;;16.55;51.81
43934;BME280;59081;42.706;23.306;2022-10-24T08:39:39;95923.41;;;17.05;50.53
43934;BME280;59081;42.706;23.306;2022-10-24T08:42:07;95948.22;;;17.67;49.60
43934;BME280;59081;42.706;23.306;2022-10-24T08:44:40;95919.41;;;17.97;47.81
43934;BME280;59081;42.706;23.306;2022-10-24T08:47:41;95988.38;;;18.39;47.93
43934;BME280;59081;42.706;23.306;2022-10-24T08:50:26;95979.13;;;18.24;48.10
43934;BME280;59081;42.706;23.306;2022-10-24T08:53:03;95955.72;;;18.30;48.45
43934;BME280;59081;42.706;23.306;2022-10-24T08:58:05;95946.50;;;18.90;46.21
43934;BME280;59081;42.706;23.306;2022-10-24T09:00:39;95910.69;;;19.12;45.44
43934;BME280;59081;42.706;23.306;2022-10-24T09:08:59;95960.13;;;19.69;44.55
43934;BME280;59081;42.706;23.306;2022-10-24T09:14:26;95878.13;;;19.09;44.63
43934;BME280;59081;42.706;23.306;2022-10-24T09:20:25;95966.91;;;20.60;42.61
43934;BME280;59081;42.706;23.306;2022-10-24T09:22:59;95883.03;;;19.92;42.83
43934;BME280;59081;42.706;23.306;2022-10-24T09:25:35;95874.97;;;20.08;42.28
43934;BME280;59081;42.706;23.306;2022-10-24T09:28:08;95914.75;;;20.33;42.81
43934;BME280;59081;42.706;23.306;2022-10-24T09:30:43;95884.72;;;20.63;41.31
43934;BME280;59081;42.706;23.306;2022-10-24T09:35:55;95886.88;;;20.09;43.27
43934;BME280;59081;42.706;23.306;2022-10-24T09:38:29;95926.47;;;20.81;41.89
43934;BME280;59081;42.706;23.306;2022-10-24T09:41:24;95939.69;;;21.15;41.41
43934;BME280;59081;42.706;23.306;2022-10-24T09:43:58;95835.28;;;20.39;41.35
43934;BME280;59081;42.706;23.306;2022-10-24T09:46:35;95894.22;;;21.21;41.00
43934;BME280;59081;42.706;23.306;2022-10-24T09:49:15;95836.66;;;21.19;39.92
43934;BME280;59081;42.706;23.306;2022-10-24T09:51:59;95852.44;;;21.63;39.55
43934;BME280;59081;42.706;23.306;2022-10-24T09:54:34;95855.34;;;21.74;39.46
43934;BME280;59081;42.706;23.306;2022-10-24T09:59:49;95839.94;;;22.16;37.90
43934;BME280;59081;42.706;23.306;2022-10-24T10:02:28;95863.81;;;22.06;38.35
43934;BME280;59081;42.706;23.306;2022-10-24T10:07:33;95874.94;;;22.57;37.56
43934;BME280;59081;42.706;23.306;2022-10-24T10:10:06;95843.13;;;22.35;37.67
43934;BME280;59081;42.706;23.306;2022-10-24T10:12:42;95818.78;;;22.57;36.98
43934;BME280;59081;42.706;23.306;2022-10-24T10:15:38;95838.13;;;22.44;37.25
43934;BME280;59081;42.706;23.306;2022-10-24T10:21:20;95911.91;;;22.82;37.94
43934;BME280;59081;42.706;23.306;2022-10-24T10:23:53;95800.03;;;22.32;37.31
43934;BME280;59081;42.706;23.306;2022-10-24T10:26:28;95799.59;;;22.45;37.35
43934;BME280;59081;42.706;23.306;2022-10-24T10:29:03;95870.31;;;23.34;36.54
43934;BME280;59081;42.706;23.306;2022-10-24T10:39:37;95869.00;;;24.73;34.20
43934;BME280;59081;42.706;23.306;2022-10-24T10:42:34;95800.97;;;24.24;34.35
43934;BME280;59081;42.706;23.306;2022-10-24T10:50:36;95877.34;;;25.28;33.21
43934;BME280;59081;42.706;23.306;2022-10-24T11:01:49;95849.50;;;25.66;32.55
43934;BME280;59081;42.706;23.306;2022-10-24T11:09:55;95758.38;;;25.30;32.20
43934;BME280;59081;42.706;23.306;2022-10-24T11:12:35;95799.38;;;26.19;31.29
43934;BME280;59081;42.706;23.306;2022-10-24T11:15:34;95835.94;;;26.41;30.95
43934;BME280;59081;42.706;23.306;2022-10-24T11:18:19;95809.38;;;26.20;31.05
43934;BME280;59081;42.706;23.306;2022-10-24T11:20:50;95800.53;;;25.63;31.53
43934;BME280;59081;42.706;23.306;2022-10-24T11:26:08;95742.84;;;25.12;32.07
43934;BME280;59081;42.706;23.306;2022-10-24T11:31:22;95826.28;;;25.90;31.99
43934;BME280;59081;42.706;23.306;2022-10-24T11:34:07;95791.97;;;26.46;31.57
43934;BME280;59081;42.706;23.306;2022-10-24T11:36:54;95798.63;;;27.21;29.90
43934;BME280;59081;42.706;23.306;2022-10-24T11:39:55;95810.88;;;27.48;29.57
43934;BME280;59081;42.706;23.306;2022-10-24T11:42:30;95717.13;;;27.20;29.54
43934;BME280;59081;42.706;23.306;2022-10-24T11:45:18;95804.28;;;27.21;30.02
43934;BME280;59081;42.706;23.306;2022-10-24T11:47:56;95752.34;;;26.27;30.60
43934;BME280;59081;42.706;23.306;2022-10-24T11:56:01;95786.81;;;28.11;29.43
43934;BME280;59081;42.706;23.306;2022-10-24T11:58:31;95782.81;;;28.52;27.89
43934;BME280;59081;42.706;23.306;2022-10-24T12:10:20;95775.16;;;29.05;27.81
43934;BME280;59081;42.706;23.306;2022-10-24T12:16:18;95764.84;;;28.75;27.55
43934;BME280;59081;42.706;23.306;2022-10-24T12:18:56;95704.25;;;29.05;27.13
43934;BME280;59081;42.706;23.306;2022-10-24T12:21:34;95737.94;;;29.90;26.21
43934;BME280;59081;42.706;23.306;2022-10-24T12:24:29;95669.53;;;29.46;26.11
43934;BME280;59081;42.706;23.306;2022-10-24T12:27:05;95755.16;;;30.05;26.44
43934;BME280;59081;42.706;23.306;2022-10-24T12:29:36;95672.75;;;29.84;25.46
43934;BME280;59081;42.706;23.306;2022-10-24T12:32:52;95691.81;;;30.67;24.69
43934;BME280;59081;42.706;23.306;2022-10-24T12:35:43;95726.50;;;30.94;24.38
43934;BME280;59081;42.706;23.306;2022-10-24T12:53:15;95713.56;;;29.39;26.14
43934;BME280;59081;42.706;23.306;2022-10-24T12:58:30;95731.16;;;30.34;25.73
43934;BME280;59081;42.706;23.306;2022-10-24T13:01:33;95649.91;;;29.69;26.09
43934;BME280;59081;42.706;23.306;2022-10-24T13:04:37;95722.94;;;30.44;25.14
43934;BME280;59081;42.706;23.306;2022-10-24T13:16:12;95708.72;;;30.72;25.46
43934;BME280;59081;42.706;23.306;2022-10-24T13:18:54;95675.53;;;31.03;24.37
43934;BME280;59081;42.706;23.306;2022-10-24T13:21:51;95692.00;;;31.33;23.87
43934;BME280;59081;42.706;23.306;2022-10-24T13:24:42;95674.13;;;31.25;24.02
43934;BME280;59081;42.706;23.306;2022-10-24T13:35:17;95640.56;;;29.40;25.88
43934;BME280;59081;42.706;23.306;2022-10-24T13:37:54;95689.72;;;29.56;26.15
43934;BME280;59081;42.706;23.306;2022-10-24T13:41:15;95641.00;;;28.31;27.12
43934;BME280;59081;42.706;23.306;2022-10-24T13:44:23;95633.31;;;27.86;27.81
43934;BME280;59081;42.706;23.306;2022-10-24T13:46:53;95682.53;;;27.32;29.46
43934;BME280;59081;42.706;23.306;2022-10-24T13:53:11;95604.56;;;26.43;30.08
43934;BME280;59081;42.706;23.306;2022-10-24T13:55:48;95680.91;;;26.56;30.89
43934;BME280;59081;42.706;23.306;2022-10-24T13:58:24;95697.25;;;26.15;31.71
43934;BME280;59081;42.706;23.306;2022-10-24T14:03:34;95620.47;;;25.32;32.05
43934;BME280;59081;42.706;23.306;2022-10-24T14:06:09;95666.84;;;25.37;32.47
43934;BME280;59081;42.706;23.306;2022-10-24T14:08:49;95691.44;;;25.77;32.40
43934;BME280;59081;42.706;23.306;2022-10-24T14:11:44;95585.72;;;25.18;32.16
43934;BME280;59081;42.706;23.306;2022-10-24T14:14:29;95593.44;;;25.12;32.15
43934;BME280;59081;42.706;23.306;2022-10-24T14:19:56;95625.13;;;24.83;33.36
43934;BME280;59081;42.706;23.306;2022-10-24T14:22:39;95690.03;;;25.18;33.46
43934;BME280;59081;42.706;23.306;2022-10-24T14:25:36;95689.91;;;24.88;33.92
43934;BME280;59081;42.706;23.306;2022-10-24T14:28:24;95660.81;;;24.69;34.43
43934;BME280;59081;42.706;23.306;2022-10-24T14:30:57;95586.59;;;23.86;34.57
43934;BME280;59081;42.706;23.306;2022-10-24T14:33:40;95689.59;;;24.40;35.24
43934;BME280;59081;42.706;23.306;2022-10-24T14:36:13;95612.44;;;23.79;35.57
43934;BME280;59081;42.706;23.306;2022-10-24T14:38:52;95650.53;;;23.80;36.49
43934;BME280;59081;42.706;23.306;2022-10-24T14:41:34;95574.38;;;23.34;36.80
43934;BME280;59081;42.706;23.306;2022-10-24T14:44:32;95664.63;;;23.69;37.77
43934;BME280;59081;42.706;23.306;2022-10-24T14:50:34;95657.16;;;23.38;37.99
43934;BME280;59081;42.706;23.306;2022-10-24T14:56:34;95666.13;;;23.31;38.68
43934;BME280;59081;42.706;23.306;2022-10-24T14:59:36;95586.31;;;22.67;39.12
43934;BME280;59081;42.706;23.306;2022-10-24T15:08:58;95571.25;;;22.65;38.94
43934;BME280;59081;42.706;23.306;2022-10-24T15:11:57;95630.06;;;22.96;39.23
43934;BME280;59081;42.706;23.306;2022-10-24T15:14:43;95628.00;;;22.91;39.55
43934;BME280;59081;42.706;23.306;2022-10-24T15:17:33;95641.00;;;22.88;39.50
43934;BME280;59081;42.706;23.306;2022-10-24T15:20:17;95656.63;;;23.06;39.26
43934;BME280;59081;42.706;23.306;2022-10-24T15:23:05;95677.06;;;23.12;39.52
43934;BME280;59081;42.706;23.306;2022-10-24T15:25:38;95546.91;;;22.28;39.61
43934;BME280;59081;42.706;23.306;2022-10-24T15:31:18;95580.22;;;22.04;41.06
43934;BME280;59081;42.706;23.306;2022-10-24T15:33:47;95677.81;;;22.31;42.47
43934;BME280;59081;42.706;23.306;2022-10-24T15:36:26;95566.41;;;21.52;43.10
43934;BME280;59081;42.706;23.306;2022-10-24T15:39:12;95659.28;;;21.71;44.23
43934;BME280;59081;42.706;23.306;2022-10-24T15:41:58;95654.19;;;21.38;45.22
43934;BME280;59081;42.706;23.306;2022-10-24T15:44:27;95549.94;;;20.71;45.72
43934;BME280;59081;42.706;23.306;2022-10-24T15:47:14;95665.75;;;21.19;46.53
43934;BME280;59081;42.706;23.306;2022-10-24T15:50:11;95548.50;;;20.09;47.63
43934;BME280;59081;42.706;23.306;2022-10-24T15:56:00;95648.38;;;20.23;49.47